createdAt,value
2023-04-18T00:01:19.049Z,9.20
2023-04-18T00:03:47.189Z,8.73
2023-04-18T00:06:15.108Z,9.13
2023-04-18T00:08:42.890Z,8.20
2023-04-18T00:11:10.701Z,8.10
2023-04-18T00:13:39.353Z,8.67
2023-04-18T00:16:08.776Z,8.63
2023-04-18T00:18:39.838Z,7.93
2023-04-18T00:21:08.611Z,8.17
2023-04-18T00:23:37.173Z,7.77
2023-04-18T00:26:05.003Z,7.10
2023-04-18T00:28:32.818Z,7.53
2023-04-18T00:31:00.701Z,6.77
2023-04-18T00:33:28.604Z,7.20
2023-04-18T00:35:57.761Z,6.77
2023-04-18T00:38:25.835Z,6.43
2023-04-18T00:40:53.602Z,6.87
2023-04-18T00:43:24.544Z,6.70
2023-04-18T00:45:52.339Z,6.43
2023-04-18T00:48:20.161Z,6.63
2023-04-18T00:50:47.965Z,6.00
2023-04-18T00:53:17.406Z,6.57
2023-04-18T00:55:45.792Z,6.40
2023-04-18T00:58:13.667Z,6.87
2023-04-18T01:00:42.646Z,6.57
2023-04-18T01:03:14.774Z,6.73
2023-04-18T01:05:42.862Z,6.63
2023-04-18T01:08:10.724Z,6.63
2023-04-18T01:10:39.946Z,6.67
2023-04-18T01:13:13.279Z,6.57
2023-04-18T01:15:42.760Z,6.73
2023-04-18T01:18:11.718Z,6.53
2023-04-18T01:20:42.819Z,6.70
2023-04-18T01:23:11.271Z,6.53
2023-04-18T01:25:40.576Z,5.87
2023-04-18T01:28:08.621Z,5.97
2023-04-18T01:30:36.872Z,6.40
2023-04-18T01:33:05.753Z,6.53
2023-04-18T01:35:34.344Z,6.90
2023-04-18T01:38:02.287Z,5.57
2023-04-18T01:40:30.863Z,5.97
2023-04-18T01:43:00.017Z,6.13
2023-04-18T01:45:27.898Z,6.07
2023-04-18T01:47:55.906Z,6.00
2023-04-18T01:50:24.152Z,6.40
2023-04-18T01:52:51.999Z,6.50
2023-04-18T01:55:19.874Z,5.20
2023-04-18T01:57:47.698Z,5.67
2023-04-18T02:00:17.522Z,5.83
2023-04-18T02:02:45.418Z,6.00
2023-04-18T02:05:15.147Z,6.23
2023-04-18T02:07:43.099Z,5.77
2023-04-18T02:10:12.996Z,5.97
2023-04-18T02:12:40.779Z,5.93
2023-04-18T02:15:09.595Z,6.07
2023-04-18T02:17:38.878Z,5.70
2023-04-18T02:20:09.258Z,5.40
2023-04-18T02:22:37.653Z,5.27
2023-04-18T02:25:05.883Z,5.53
2023-04-18T02:27:33.694Z,5.20
2023-04-18T02:30:02.582Z,5.70
2023-04-18T02:32:34.412Z,5.63
2023-04-18T02:35:03.689Z,5.23
2023-04-18T02:37:31.559Z,5.67
2023-04-18T02:39:59.315Z,5.60
2023-04-18T02:42:30.827Z,4.90
2023-04-18T02:44:59.018Z,5.37
2023-04-18T02:47:27.534Z,5.30
2023-04-18T02:49:55.446Z,5.07
2023-04-18T02:52:26.149Z,5.50
2023-04-18T02:54:54.144Z,5.60
2023-04-18T02:57:26.808Z,5.80
2023-04-18T03:00:14.760Z,5.43
2023-04-18T03:03:01.437Z,5.90
2023-04-18T03:05:49.805Z,5.50
2023-04-18T03:08:19.117Z,5.40
2023-04-18T03:10:48.790Z,5.60
2023-04-18T03:13:19.197Z,5.67
2023-04-18T03:15:47.123Z,6.17
2023-04-18T03:18:14.939Z,5.93
2023-04-18T03:20:43.890Z,5.67
2023-04-18T03:23:11.800Z,6.13
2023-04-18T03:25:41.484Z,5.87
2023-04-18T03:28:10.055Z,6.47
2023-04-18T03:30:37.910Z,6.10
2023-04-18T03:33:06.853Z,6.37
2023-04-18T03:35:34.857Z,6.57
2023-04-18T03:38:02.740Z,6.53
2023-04-18T03:40:34.159Z,7.27
2023-04-18T03:43:09.328Z,7.03
2023-04-18T03:45:37.459Z,6.97
2023-04-18T03:48:07.144Z,6.40
2023-04-18T03:50:38.933Z,7.43
2023-04-18T03:53:10.324Z,6.43
2023-04-18T03:55:39.788Z,6.80
2023-04-18T03:58:09.361Z,6.90
2023-04-18T04:00:37.328Z,7.37
2023-04-18T04:03:09.143Z,7.23
2023-04-18T04:05:37.163Z,7.40
2023-04-18T04:08:05.860Z,7.43
2023-04-18T04:10:34.911Z,7.80
2023-04-18T04:13:02.771Z,6.90
2023-04-18T04:15:34.201Z,7.23
2023-04-18T04:18:06.945Z,7.63
2023-04-18T04:20:37.672Z,8.17
2023-04-18T04:23:11.848Z,8.23
2023-04-18T04:25:40.858Z,7.97
2023-04-18T04:28:17.285Z,8.87
2023-04-18T04:30:55.548Z,8.17
2023-04-18T04:33:25.160Z,9.10
2023-04-18T04:35:55.631Z,9.37
2023-04-18T04:38:23.978Z,9.27
2023-04-18T04:40:53.243Z,9.40
2023-04-18T04:43:21.593Z,9.30
2023-04-18T04:45:51.550Z,9.53
2023-04-18T04:48:25.021Z,9.83
2023-04-18T04:50:55.134Z,9.77
2023-04-18T04:53:23.582Z,10.60
2023-04-18T04:55:52.381Z,10.27
2023-04-18T04:58:20.803Z,10.87
2023-04-18T05:01:09.121Z,10.43
2023-04-18T05:03:39.375Z,10.20
2023-04-18T05:06:07.622Z,10.67
2023-04-18T05:08:35.624Z,10.80
2023-04-18T05:11:03.756Z,10.40
2023-04-18T05:13:31.591Z,10.50
2023-04-18T05:16:00.065Z,10.57
2023-04-18T05:18:27.868Z,10.30
2023-04-18T05:20:57.037Z,10.27
2023-04-18T05:23:24.974Z,10.30
2023-04-18T05:25:53.308Z,9.70
2023-04-18T05:28:21.159Z,10.27
2023-04-18T05:30:48.989Z,9.97
2023-04-18T05:33:16.852Z,9.60
2023-04-18T05:35:44.751Z,9.97
2023-04-18T05:38:13.907Z,9.67
2023-04-18T05:40:42.424Z,9.10
2023-04-18T05:43:10.164Z,9.13
2023-04-18T05:45:37.967Z,9.47
2023-04-18T05:48:05.981Z,9.23
2023-04-18T05:50:33.823Z,8.73
2023-04-18T05:53:01.626Z,8.47
2023-04-18T05:55:30.877Z,9.73
2023-04-18T05:57:58.720Z,9.50
2023-04-18T06:00:26.515Z,9.20
2023-04-18T06:02:54.520Z,9.67
2023-04-18T06:05:22.804Z,11.30
2023-04-18T06:07:50.770Z,9.57
2023-04-18T06:10:18.624Z,9.40
2023-04-18T06:12:47.832Z,9.20
2023-04-18T06:15:15.663Z,9.13
2023-04-18T06:17:44.570Z,9.80
2023-04-18T06:20:12.639Z,9.87
2023-04-18T06:22:40.465Z,10.03
2023-04-18T06:25:09.987Z,10.63
2023-04-18T06:27:38.477Z,10.83
2023-04-18T06:30:09.213Z,9.30
2023-04-18T06:32:37.094Z,10.57
2023-04-18T06:35:05.207Z,10.47
2023-04-18T06:37:33.203Z,11.57
2023-04-18T06:40:01.012Z,11.73
2023-04-18T06:42:28.855Z,12.17
2023-04-18T06:44:56.680Z,12.33
2023-04-18T06:47:26.027Z,11.60
2023-04-18T06:49:53.910Z,11.87
2023-04-18T06:52:21.721Z,11.00
2023-04-18T06:54:49.505Z,12.07
2023-04-18T06:57:17.401Z,11.87
2023-04-18T06:59:45.153Z,12.00
2023-04-18T07:02:13.053Z,12.37
2023-04-18T07:04:42.333Z,12.23
2023-04-18T07:07:10.167Z,12.13
2023-04-18T07:09:38.018Z,12.00
2023-04-18T07:12:06.334Z,12.70
2023-04-18T07:14:34.383Z,13.03
2023-04-18T07:17:02.958Z,13.63
2023-04-18T07:19:30.872Z,13.27
2023-04-18T07:21:59.999Z,12.83
2023-04-18T07:24:27.940Z,12.73
2023-04-18T07:26:55.914Z,13.43
2023-04-18T07:29:23.881Z,12.07
2023-04-18T07:31:52.949Z,11.47
2023-04-18T07:34:22.009Z,13.10
2023-04-18T07:36:50.066Z,12.40
2023-04-18T07:39:19.349Z,12.43
2023-04-18T07:41:47.208Z,12.50
2023-04-18T07:44:15.164Z,11.77
2023-04-18T07:46:43.122Z,12.23
2023-04-18T07:49:11.142Z,11.93
2023-04-18T07:51:39.149Z,11.27
2023-04-18T07:54:07.259Z,11.38
2023-04-18T07:56:36.423Z,12.25
2023-04-18T07:59:04.234Z,11.33
2023-04-18T08:01:32.115Z,11.40
2023-04-18T08:04:02.059Z,11.87
2023-04-18T08:06:30.223Z,10.52
2023-04-18T08:08:58.982Z,11.02
2023-04-18T08:11:26.907Z,10.52
2023-04-18T08:13:56.067Z,11.20
2023-04-18T08:16:23.959Z,10.73
2023-04-18T08:18:51.796Z,10.30
2023-04-18T08:21:19.941Z,10.80
2023-04-18T08:23:47.815Z,9.93
2023-04-18T08:26:15.650Z,11.50
2023-04-18T08:28:45.969Z,10.50
2023-04-18T08:31:17.079Z,11.77
2023-04-18T08:33:44.984Z,11.25
2023-04-18T08:36:13.587Z,11.50
2023-04-18T08:38:41.385Z,12.07
2023-04-18T08:41:09.602Z,12.53
2023-04-18T08:43:38.825Z,12.45
2023-04-18T08:46:07.938Z,12.52
2023-04-18T08:48:38.041Z,11.77
2023-04-18T08:51:07.214Z,13.02
2023-04-18T08:53:35.211Z,12.30
2023-04-18T08:56:03.163Z,12.60
2023-04-18T08:58:32.432Z,12.40
2023-04-18T09:01:00.916Z,12.90
2023-04-18T09:03:39.730Z,12.90
2023-04-18T09:06:09.423Z,12.93
2023-04-18T09:08:37.274Z,12.33
2023-04-18T09:11:21.847Z,12.60
2023-04-18T09:13:50.342Z,13.00
2023-04-18T09:16:20.682Z,13.95
2023-04-18T09:19:13.408Z,12.02
2023-04-18T09:21:44.382Z,12.73
2023-04-18T09:24:20.951Z,12.45
2023-04-18T09:26:50.735Z,12.07
2023-04-18T09:29:22.344Z,12.40
2023-04-18T09:32:01.215Z,13.00
2023-04-18T09:34:34.022Z,12.88
2023-04-18T09:37:10.161Z,12.68
2023-04-18T09:39:39.163Z,12.82
2023-04-18T09:42:07.906Z,12.98
2023-04-18T09:44:35.935Z,12.27
2023-04-18T09:47:03.868Z,11.48
2023-04-18T09:49:33.780Z,12.93
2023-04-18T09:52:06.305Z,13.15
2023-04-18T09:54:38.775Z,12.38
2023-04-18T09:57:12.918Z,12.95
2023-04-18T09:59:47.709Z,12.57
2023-04-18T10:02:21.001Z,12.57
2023-04-18T10:04:51.675Z,11.73
2023-04-18T10:07:19.912Z,12.10
2023-04-18T10:09:48.685Z,12.60
2023-04-18T10:12:18.573Z,11.63
2023-04-18T10:14:46.708Z,12.07
2023-04-18T10:17:15.950Z,12.52
2023-04-18T10:19:46.087Z,11.57
2023-04-18T10:22:15.233Z,12.35
2023-04-18T10:24:50.270Z,12.85
2023-04-18T10:27:18.822Z,12.55
2023-04-18T10:29:51.042Z,12.77
2023-04-18T10:32:20.205Z,12.30
2023-04-18T10:34:48.717Z,13.20
2023-04-18T10:37:18.909Z,14.02
2023-04-18T10:39:56.858Z,12.77
2023-04-18T10:42:58.156Z,13.10
2023-04-18T10:45:28.496Z,13.50
2023-04-18T10:48:24.930Z,12.68
2023-04-18T10:51:16.142Z,12.98
2023-04-18T10:53:52.610Z,13.13
2023-04-18T10:56:20.577Z,13.75
2023-04-18T10:58:52.131Z,13.55
2023-04-18T11:01:27.998Z,13.68
2023-04-18T11:03:58.367Z,14.32
2023-04-18T11:06:27.167Z,14.45
2023-04-18T11:12:04.299Z,14.15
2023-04-18T11:14:47.230Z,13.73
2023-04-18T11:17:23.782Z,14.25
2023-04-18T11:19:52.294Z,14.00
2023-04-18T11:22:20.165Z,14.02
2023-04-18T11:24:48.338Z,13.38
2023-04-18T11:27:17.622Z,13.07
2023-04-18T11:29:45.665Z,13.93
2023-04-18T11:32:13.591Z,13.65
2023-04-18T11:34:41.591Z,13.82
2023-04-18T11:37:09.585Z,13.65
2023-04-18T11:39:42.084Z,13.40
2023-04-18T11:42:10.502Z,13.65
2023-04-18T11:44:42.709Z,13.98
2023-04-18T11:47:24.106Z,13.15
2023-04-18T11:49:58.131Z,13.02
2023-04-18T11:52:28.137Z,13.02
2023-04-18T11:54:56.601Z,13.00
2023-04-18T11:57:25.946Z,12.30
2023-04-18T11:59:57.430Z,13.55
2023-04-18T12:02:27.340Z,12.70
2023-04-18T12:04:57.515Z,13.25
2023-04-18T12:07:36.085Z,12.75
2023-04-18T12:10:05.686Z,13.65
2023-04-18T12:12:33.805Z,13.18
2023-04-18T12:15:05.156Z,13.75
2023-04-18T12:17:33.423Z,13.00
2023-04-18T12:20:08.926Z,13.90
2023-04-18T12:22:42.937Z,13.73
2023-04-18T12:25:20.086Z,12.68
2023-04-18T12:27:55.321Z,12.40
2023-04-18T12:30:25.908Z,12.63
2023-04-18T12:32:55.810Z,11.98
2023-04-18T12:35:24.167Z,13.13
2023-04-18T12:37:53.866Z,11.73
2023-04-18T12:40:23.040Z,12.68
2023-04-18T12:42:52.013Z,12.60
2023-04-18T12:45:21.753Z,11.75
2023-04-18T12:47:52.349Z,11.80
2023-04-18T12:50:22.629Z,11.70
2023-04-18T12:52:52.040Z,11.15
2023-04-18T12:55:20.764Z,11.93
2023-04-18T12:57:48.839Z,11.82
2023-04-18T13:00:17.085Z,15.10
2023-04-18T13:02:46.253Z,16.65
2023-04-18T13:05:18.142Z,11.93
2023-04-18T13:07:47.242Z,12.48
2023-04-18T13:10:17.651Z,11.80
2023-04-18T13:12:46.559Z,12.70
2023-04-18T13:15:15.849Z,13.60
2023-04-18T13:17:44.738Z,12.73
2023-04-18T13:20:13.646Z,16.88
2023-04-18T13:22:43.712Z,12.88
2023-04-18T13:25:12.633Z,11.80
2023-04-18T13:27:42.175Z,11.82
2023-04-18T13:30:12.775Z,11.88
2023-04-18T13:32:41.846Z,11.80
2023-04-18T13:35:13.025Z,12.10
2023-04-18T13:37:42.856Z,12.18
2023-04-18T13:40:11.451Z,11.60
2023-04-18T13:42:39.833Z,12.32
2023-04-18T13:45:08.554Z,11.65
2023-04-18T13:47:37.236Z,12.30
2023-04-18T13:50:05.751Z,13.43
2023-04-18T13:52:33.884Z,12.00
2023-04-18T13:55:03.767Z,11.65
2023-04-18T13:57:33.713Z,11.73
2023-04-18T14:00:01.775Z,11.68
2023-04-18T14:02:39.951Z,12.70
2023-04-18T14:05:09.463Z,12.43
2023-04-18T14:07:38.317Z,12.40
2023-04-18T14:10:09.015Z,13.52
2023-04-18T14:12:36.972Z,13.43
2023-04-18T14:15:05.490Z,12.65
2023-04-18T14:17:33.465Z,13.38
2023-04-18T14:20:02.432Z,13.05
2023-04-18T14:22:30.414Z,12.63
2023-04-18T14:24:58.332Z,12.60
2023-04-18T14:27:27.791Z,12.25
2023-04-18T14:29:55.838Z,12.35
2023-04-18T14:32:24.055Z,11.75
2023-04-18T14:34:52.575Z,12.00
2023-04-18T14:37:20.438Z,11.63
2023-04-18T14:39:48.621Z,12.15
2023-04-18T14:42:17.146Z,12.25
2023-04-18T14:44:46.465Z,11.95
2023-04-18T14:47:14.995Z,12.65
2023-04-18T14:49:43.004Z,12.48
2023-04-18T14:52:10.944Z,11.77
2023-04-18T14:54:38.826Z,11.90
2023-04-18T14:57:08.260Z,10.88
2023-04-18T14:59:36.258Z,12.18
2023-04-18T15:02:05.674Z,11.93
2023-04-18T15:04:33.986Z,12.27
2023-04-18T15:07:02.416Z,12.65
2023-04-18T15:09:30.633Z,11.90
2023-04-18T15:12:00.049Z,11.48
2023-04-18T15:14:27.999Z,11.57
2023-04-18T15:16:56.001Z,12.40
2023-04-18T15:19:25.406Z,12.07
2023-04-18T15:21:53.260Z,11.60
2023-04-18T15:24:21.205Z,11.63
2023-04-18T15:26:49.184Z,11.13
2023-04-18T15:29:17.116Z,11.20
2023-04-18T15:31:45.150Z,10.90
2023-04-18T15:34:13.412Z,10.80
2023-04-18T15:36:43.008Z,10.63
2023-04-18T15:39:11.032Z,10.63
2023-04-18T15:41:39.126Z,10.57
2023-04-18T15:44:10.529Z,10.70
2023-04-18T15:46:38.726Z,10.95
2023-04-18T15:49:06.692Z,10.75
2023-04-18T15:51:34.636Z,11.15
2023-04-18T15:54:04.084Z,11.18
2023-04-18T15:56:33.519Z,10.70
2023-04-18T15:59:04.722Z,10.90
2023-04-18T16:01:33.134Z,11.60
2023-04-18T16:04:01.216Z,11.45
2023-04-18T16:06:31.220Z,11.82
2023-04-18T16:08:59.280Z,11.13
2023-04-18T16:11:29.015Z,11.48
2023-04-18T16:13:56.975Z,11.38
2023-04-18T16:16:24.886Z,10.90
2023-04-18T16:18:53.089Z,11.02
2023-04-18T16:21:21.003Z,11.30
2023-04-18T16:23:49.481Z,11.60
2023-04-18T16:26:17.516Z,11.27
2023-04-18T16:28:48.154Z,11.38
2023-04-18T16:31:16.548Z,10.75
2023-04-18T16:33:45.310Z,11.57
2023-04-18T16:36:13.286Z,12.02
2023-04-18T16:38:41.225Z,11.50
2023-04-18T16:41:09.322Z,11.38
2023-04-18T16:43:38.042Z,12.10
2023-04-18T16:46:07.530Z,11.25
2023-04-18T16:48:37.812Z,12.10
2023-04-18T16:51:06.723Z,11.05
2023-04-18T16:53:34.618Z,10.85
2023-04-18T16:56:03.278Z,11.27
2023-04-18T16:58:31.366Z,12.48
2023-04-18T17:00:59.578Z,11.70
2023-04-18T17:03:29.042Z,11.82
2023-04-18T17:05:57.017Z,11.30
2023-04-18T17:08:25.897Z,11.20
2023-04-18T17:10:53.944Z,11.35
2023-04-18T17:13:26.707Z,11.02
2023-04-18T17:15:55.020Z,10.95
2023-04-18T17:18:23.126Z,10.95
2023-04-18T17:20:52.423Z,10.45
2023-04-18T17:23:21.778Z,11.18
2023-04-18T17:25:49.818Z,10.95
2023-04-18T17:28:17.776Z,10.65
2023-04-18T17:30:45.908Z,10.18
2023-04-18T17:33:13.933Z,10.55
2023-04-18T17:35:42.412Z,10.80
2023-04-18T17:38:11.749Z,10.35
2023-04-18T17:40:40.523Z,10.68
2023-04-18T17:43:08.595Z,13.20
2023-04-18T17:45:37.265Z,10.73
2023-04-18T17:48:05.985Z,11.48
2023-04-18T17:50:36.983Z,11.07
2023-04-18T17:53:05.037Z,10.88
2023-04-18T17:55:34.339Z,10.55
2023-04-18T17:58:02.330Z,11.73
2023-04-18T18:00:31.408Z,10.57
2023-04-18T18:03:01.373Z,11.13
2023-04-18T18:05:30.255Z,11.52
2023-04-18T18:07:58.371Z,11.05
2023-04-18T18:10:26.738Z,10.95
2023-04-18T18:12:56.165Z,11.27
2023-04-18T18:15:25.143Z,12.10
2023-04-18T18:17:53.244Z,11.70
2023-04-18T18:20:21.267Z,11.57
2023-04-18T18:22:49.197Z,12.25
2023-04-18T18:25:17.186Z,10.88
2023-04-18T18:27:45.085Z,11.68
2023-04-18T18:30:14.726Z,11.95
2023-04-18T18:32:42.688Z,11.55
2023-04-18T18:35:10.948Z,11.95
2023-04-18T18:37:39.064Z,12.43
2023-04-18T18:40:08.410Z,11.45
2023-04-18T18:42:37.235Z,12.57
2023-04-18T18:45:07.543Z,12.48
2023-04-18T18:47:39.658Z,13.18
2023-04-18T18:50:09.546Z,12.70
2023-04-18T18:52:39.960Z,11.45
2023-04-18T18:55:09.046Z,13.35
2023-04-18T18:57:37.629Z,13.23
2023-04-18T19:00:09.401Z,13.25
2023-04-18T19:02:38.994Z,12.82
2023-04-18T19:05:08.117Z,13.68
2023-04-18T19:07:35.997Z,13.00
2023-04-18T19:10:04.710Z,13.50
2023-04-18T19:12:32.810Z,13.60
2023-04-18T19:15:00.736Z,13.63
2023-04-18T19:17:28.698Z,12.70
2023-04-18T19:19:59.276Z,12.35
2023-04-18T19:22:27.299Z,12.85
2023-04-18T19:24:55.110Z,12.60
2023-04-18T19:27:23.284Z,13.20
2023-04-18T19:29:51.310Z,13.43
2023-04-18T19:32:19.235Z,12.93
2023-04-18T19:34:47.293Z,13.43
2023-04-18T19:37:16.703Z,13.82
2023-04-18T19:39:44.647Z,13.63
2023-04-18T19:42:12.689Z,13.88
2023-04-18T19:44:40.539Z,13.47
2023-04-18T19:47:08.686Z,14.60
2023-04-18T19:49:36.689Z,13.17
2023-04-18T19:52:04.570Z,13.37
2023-04-18T19:54:34.327Z,13.70
2023-04-18T19:57:02.738Z,13.20
2023-04-18T19:59:30.668Z,13.33
2023-04-18T20:02:01.451Z,13.33
2023-04-18T20:04:34.210Z,13.30
2023-04-18T20:07:02.456Z,12.85
2023-04-18T20:09:30.603Z,13.27
2023-04-18T20:12:01.897Z,12.70
2023-04-18T20:14:30.338Z,12.93
2023-04-18T20:16:58.355Z,13.48
2023-04-18T20:19:30.579Z,12.27
2023-04-18T20:21:58.694Z,12.40
2023-04-18T20:24:28.118Z,12.63
2023-04-18T20:26:57.278Z,12.40
2023-04-18T20:29:26.649Z,12.40
2023-04-18T20:31:57.099Z,12.45
2023-04-18T20:34:25.087Z,12.85
2023-04-18T20:36:53.072Z,12.32
2023-04-18T20:39:21.241Z,12.82
2023-04-18T20:41:51.348Z,13.80
2023-04-18T20:44:20.930Z,12.88
2023-04-18T20:46:50.310Z,12.65
2023-04-18T20:49:18.257Z,13.27
2023-04-18T20:51:46.244Z,12.82
2023-04-18T20:54:14.365Z,13.35
2023-04-18T20:56:42.607Z,12.85
2023-04-18T20:59:10.519Z,13.00
2023-04-18T21:01:38.520Z,13.95
2023-04-18T21:04:07.978Z,13.52
2023-04-18T21:06:36.570Z,12.60
2023-04-18T21:09:04.818Z,13.15
2023-04-18T21:11:32.794Z,13.48
2023-04-18T21:14:00.918Z,13.23
2023-04-18T21:16:28.941Z,13.23
2023-04-18T21:18:56.899Z,12.55
2023-04-18T21:21:27.237Z,12.55
2023-04-18T21:23:55.261Z,13.80
2023-04-18T21:26:23.145Z,13.50
2023-04-18T21:28:56.134Z,13.38
2023-04-18T21:31:24.528Z,12.85
2023-04-18T21:33:55.797Z,13.18
2023-04-18T21:36:24.828Z,13.15
2023-04-18T21:38:54.495Z,12.57
2023-04-18T21:41:23.007Z,13.57
2023-04-18T21:43:51.341Z,13.27
2023-04-18T21:46:19.502Z,13.00
2023-04-18T21:48:48.411Z,13.30
2023-04-18T21:51:17.778Z,13.00
2023-04-18T21:53:45.700Z,12.30
2023-04-18T21:56:15.152Z,12.50
2023-04-18T21:58:43.028Z,12.73
2023-04-18T22:01:10.957Z,13.18
2023-04-18T22:03:39.172Z,12.65
2023-04-18T22:06:07.580Z,12.90
2023-04-18T22:08:36.009Z,12.73
2023-04-18T22:11:09.272Z,12.75
2023-04-18T22:13:38.747Z,13.20
2023-04-18T22:16:08.359Z,11.85
2023-04-18T22:18:37.970Z,11.98
2023-04-18T22:21:06.780Z,11.75
2023-04-18T22:23:34.792Z,12.43
2023-04-18T22:26:02.708Z,12.38
2023-04-18T22:28:30.902Z,12.63
2023-04-18T22:31:00.302Z,12.90
2023-04-18T22:33:28.678Z,12.88
2023-04-18T22:35:56.547Z,12.98
2023-04-18T22:38:26.091Z,12.40
2023-04-18T22:40:54.128Z,12.20
2023-04-18T22:43:23.800Z,12.45
2023-04-18T22:45:52.414Z,12.40
2023-04-18T22:48:21.724Z,13.75
2023-04-18T22:50:49.897Z,12.95
2023-04-18T22:53:18.236Z,12.85
2023-04-18T22:55:46.913Z,12.38
2023-04-18T22:58:14.876Z,12.73
2023-04-18T23:00:43.111Z,13.13
2023-04-18T23:03:11.425Z,13.30
2023-04-18T23:05:41.408Z,13.10
2023-04-18T23:08:09.289Z,12.98
2023-04-18T23:10:37.195Z,13.30
2023-04-18T23:13:05.192Z,13.45
2023-04-18T23:15:33.274Z,12.70
2023-04-18T23:18:01.375Z,13.23
2023-04-18T23:20:29.311Z,13.40
2023-04-18T23:22:58.607Z,13.32
2023-04-18T23:25:26.523Z,14.23
2023-04-18T23:27:54.380Z,13.40
2023-04-18T23:30:22.280Z,15.18
2023-04-18T23:32:50.227Z,14.70
2023-04-18T23:35:18.532Z,15.63
2023-04-18T23:37:46.467Z,15.50
2023-04-18T23:40:15.642Z,14.85
2023-04-18T23:42:43.879Z,15.35
2023-04-18T23:45:12.548Z,15.57
2023-04-18T23:47:40.494Z,15.18
2023-04-18T23:50:09.633Z,15.80
2023-04-18T23:52:38.531Z,16.48
2023-04-18T23:55:07.317Z,15.82
2023-04-18T23:57:36.689Z,15.55
